Usine Sugar Plantation Airstrip

TD-0010 · Moyen-Chari, Ciad

Storia di METAR TD-0010 · Usine Sugar Plantation Airstrip

Di seguito sono riportati i METAR degli ultimi giorni. Seleziona un anno per sfogliare i METAR più vecchi, dall'anno 2007 in poi.

15 luglio 2024

Tempo Codice Tempo meteorologico Temp. Vista Base nuvolosa Vento METAR/SPECI
18:00
V
31 °C 10 km+ - 360° 360° 0 kt METAR FTTA 151700Z 00000KT 9999 FEW033 FEW046CB 31/23 Q1012
17:00
V
33 °C 10 km+ - 300° 300° 2 kt METAR FTTA 151600Z 30002KT 9999 SCT033 33/22 Q1011
16:00
V
33 °C 10 km+ - 260° 260° 4 kt METAR FTTA 151500Z 26004KT 9999 SCT033 33/21 Q1011
15:00
V
33 °C 10 km+ - 320° 320° 5 kt METAR FTTA 151400Z 32005KT 9999 SCT033 33/21 Q1012
14:00
V
33 °C 10 km+ - 360° 360° 6 kt METAR FTTA 151300Z 36006KT 9999 SCT033 33/22 Q1013
13:00
V
32 °C 10 km+ - 240° 240° 2 kt METAR FTTA 151200Z 24002KT 9999 SCT033 32/22 Q1014
12:00
V
31 °C 10 km+ - 260° 260° 4 kt METAR FTTA 151100Z 26004KT 9999 FEW033 31/23 Q1015
11:00
V
30 °C 10 km+ - 300° 300° 6 kt METAR FTTA 151000Z 30006KT 9999 FEW033 30/22 Q1015
10:00
V
29 °C 10 km+ - 260° 260° 6 kt METAR FTTA 150900Z 26006KT 9999 FEW033 29/23 Q1016
09:00
V
27 °C 10 km+ - 240° 240° 6 kt METAR FTTA 150800Z 24006KT 9999 FEW033 27/23 Q1016
08:00
V
26 °C 10 km+ - 240° 240° 8 kt METAR FTTA 150700Z 24008KT 9999 SCT020 26/23 Q1016
07:00
V
24 °C 10 km+ - 360° 360° 0 kt METAR FTTA 150600Z 00000KT 9999 SCT020 24/23 Q1016

14 luglio 2024

Tempo Codice Tempo meteorologico Temp. Vista Base nuvolosa Vento METAR/SPECI
17:00
V
25 °C 10 km+ - 240° 240° 4 kt METAR FTTA 141600Z 24004KT 9999 TS FEW050CB 25/22 Q1013
16:00
V
25 °C 10 km+ - 040° 040° 6 kt METAR FTTA 141500Z 04006KT 9999 FEW050CB 25/22 Q1014
15:00
V
26 °C 10 km+ - 060° 060° 6 kt METAR FTTA 141400Z 06006KT 9999 FEW040 FEW050CB 26/22 Q1013
14:00
V
30 °C 10 km+ - 060° 060° 8 kt METAR FTTA 141300Z 06008KT 9999 FEW040 FEW050CB 30/24 Q1014
12:00
V
31 °C 10 km+ - 300° 300° 4 kt METAR FTTA 141100Z 30004KT 9999 FEW040 FEW050CB 31/23 Q1015
11:00
V
30 °C 10 km+ - 260° 260° 4 kt METAR FTTA 141000Z 26004KT 9999 FEW040 30/24 Q1016
10:00
V
29 °C 10 km+ - 240° 240° 6 kt METAR FTTA 140900Z 24006KT CAVOK 29/24 Q1016
09:00
V
28 °C 10 km+ - 240° 240° 6 kt METAR FTTA 140800Z 24006KT CAVOK 28/24 Q1016
08:00
V
27 °C 10 km+ - 240° 240° 6 kt METAR FTTA 140700Z 24006KT 9999 FEW050CB 27/24 Q1016
06:00
V
24 °C 10 km+ - 360° 360° 0 kt METAR FTTA 140500Z 00000KT 9999 FEW050CB 24/24 Q1014

13 luglio 2024

Tempo Codice Tempo meteorologico Temp. Vista Base nuvolosa Vento METAR/SPECI
18:00
V
31 °C 10 km+ - 260° 260° 4 kt METAR FTTA 131700Z 26004KT 9999 FEW033 31/22 Q1011
17:00
V
32 °C 10 km+ - 240° 240° 6 kt METAR FTTA 131600Z 24006KT 9999 FEW033 32/22 Q1011
16:00
V
32 °C 10 km+ - 220° 220° 4 kt METAR FTTA 131500Z 22004KT 9999 SCT033 FEW050CB 32/21 Q1011
15:00
V
32 °C 10 km+ - 240° 240° 8 kt METAR FTTA 131400Z 24008KT 9999 SCT033 32/21 Q1012
13:00
V
32 °C 10 km+ 3.300 ft 220° 220° 6 kt METAR FTTA 131200Z 22006KT 9999 BKN033 32/22 Q1014
12:00
V
31 °C 10 km+ - 260° 260° 6 kt METAR FTTA 131100Z 26006KT 9999 SCT033 31/22 Q1015
11:00
V
30 °C 10 km+ - 200° 200° 4 kt METAR FTTA 131000Z 20004KT 9999 FEW033 30/22 Q1015
10:00
V
29 °C 10 km+ - 240° 240° 4 kt METAR FTTA 130900Z 24004KT 9999 FEW033 29/22 Q1016
09:00
V
27 °C 10 km+ - 240° 240° 6 kt METAR FTTA 130800Z 24006KT 9999 FEW020 27/22 Q1016
08:00
V
26 °C 10 km+ - 240° 240° 4 kt METAR FTTA 130700Z 24004KT 9999 FEW020 26/23 Q1017
07:00
V
24 °C 10 km+ - 240° 240° 4 kt METAR FTTA 130600Z 24004KT CAVOK 24/23 Q1016
Segnala modifiche